createdAt,value
2023-02-14T00:01:22.204Z,22.93
2023-02-14T00:03:49.402Z,20.90
2023-02-14T00:06:16.578Z,22.20
2023-02-14T00:08:49.080Z,18.67
2023-02-14T00:11:15.812Z,22.80
2023-02-14T00:14:07.514Z,20.03
2023-02-14T00:16:34.214Z,21.73
2023-02-14T00:19:04.235Z,20.63
2023-02-14T00:21:35.980Z,18.80
2023-02-14T00:24:22.549Z,20.07
2023-02-14T00:26:51.184Z,22.23
2023-02-14T00:29:21.918Z,20.80
2023-02-14T00:31:51.223Z,21.67
2023-02-14T00:34:19.275Z,18.70
2023-02-14T00:36:47.186Z,21.20
2023-02-14T00:39:17.916Z,22.70
2023-02-14T00:41:47.722Z,19.27
2023-02-14T00:44:14.836Z,20.33
2023-02-14T00:46:42.312Z,18.10
2023-02-14T00:49:12.250Z,19.97
2023-02-14T00:51:41.047Z,19.57
2023-02-14T00:54:07.769Z,21.87
2023-02-14T00:56:34.494Z,18.97
2023-02-14T00:59:01.330Z,21.53
2023-02-14T01:01:28.251Z,27.07
2023-02-14T01:03:55.220Z,19.63
2023-02-14T01:06:21.978Z,18.93
2023-02-14T01:08:48.694Z,19.47
2023-02-14T01:11:19.333Z,20.13
2023-02-14T01:13:48.731Z,21.30
2023-02-14T01:16:20.350Z,20.93
2023-02-14T01:18:48.356Z,19.60
2023-02-14T01:21:20.967Z,22.33
2023-02-14T01:23:50.723Z,21.10
2023-02-14T01:26:18.247Z,20.17
2023-02-14T01:28:46.085Z,22.13
2023-02-14T01:31:20.372Z,19.70
2023-02-14T01:33:49.715Z,21.67
2023-02-14T01:36:23.947Z,21.70
2023-02-14T01:38:58.418Z,19.43
2023-02-14T01:41:28.498Z,19.70
2023-02-14T01:44:14.740Z,21.47
2023-02-14T01:46:52.001Z,20.63
2023-02-14T01:49:27.135Z,22.00
2023-02-14T01:52:12.115Z,19.97
2023-02-14T01:54:59.439Z,18.67
2023-02-14T01:57:35.190Z,20.97
2023-02-14T02:00:23.008Z,20.37
2023-02-14T02:02:53.386Z,22.93
2023-02-14T02:05:24.213Z,21.40
2023-02-14T02:08:00.284Z,21.10
2023-02-14T02:10:27.110Z,21.40
2023-02-14T02:13:08.217Z,20.43
2023-02-14T02:16:22.112Z,21.80
2023-02-14T02:19:31.561Z,18.27
2023-02-14T02:22:28.627Z,21.80
2023-02-14T02:25:49.756Z,19.53
2023-02-14T02:28:44.202Z,19.70
2023-02-14T02:31:45.989Z,18.23
2023-02-14T02:34:40.991Z,18.07
2023-02-14T02:37:38.807Z,20.00
2023-02-14T02:40:53.327Z,18.87
2023-02-14T02:44:08.140Z,17.93
2023-02-14T02:47:04.526Z,19.93
2023-02-14T02:50:16.902Z,19.10
2023-02-14T02:53:17.222Z,17.90
2023-02-14T02:56:24.584Z,19.03
2023-02-14T02:59:20.795Z,18.53
2023-02-14T03:02:22.857Z,20.77
2023-02-14T03:04:56.363Z,20.63
2023-02-14T03:07:39.641Z,22.37
2023-02-14T03:10:17.115Z,21.93
2023-02-14T03:13:17.945Z,22.07
2023-02-14T03:16:16.910Z,18.80
2023-02-14T03:19:51.244Z,20.50
2023-02-14T03:23:04.184Z,18.23
2023-02-14T03:25:42.400Z,19.07
2023-02-14T03:28:42.381Z,20.33
2023-02-14T03:31:38.830Z,19.30
2023-02-14T03:34:21.338Z,20.73
2023-02-14T03:37:01.190Z,22.00
2023-02-14T03:39:51.442Z,23.53
2023-02-14T03:42:34.550Z,18.43
2023-02-14T03:45:10.823Z,18.37
2023-02-14T03:47:41.816Z,20.83
2023-02-14T03:50:16.164Z,19.23
2023-02-14T03:52:45.186Z,19.10
2023-02-14T03:55:19.941Z,19.63
2023-02-14T03:58:01.115Z,22.30
2023-02-14T04:00:32.487Z,19.67
2023-02-14T04:03:07.144Z,20.10
2023-02-14T04:05:34.005Z,23.67
2023-02-14T04:08:01.294Z,20.60
2023-02-14T04:10:28.111Z,19.57
2023-02-14T04:12:57.389Z,20.43
2023-02-14T04:15:24.200Z,19.00
2023-02-14T04:18:09.614Z,21.33
2023-02-14T04:20:37.041Z,19.63
2023-02-14T04:23:04.570Z,20.10
2023-02-14T04:25:31.640Z,18.60
2023-02-14T04:27:58.390Z,18.43
2023-02-14T04:30:25.408Z,21.70
2023-02-14T04:32:52.297Z,20.53
2023-02-14T04:35:19.079Z,18.13
2023-02-14T04:37:45.911Z,20.53
2023-02-14T04:40:16.953Z,19.93
2023-02-14T04:42:49.683Z,23.60
2023-02-14T04:45:16.528Z,17.80
2023-02-14T04:47:43.265Z,21.90
2023-02-14T04:50:10.644Z,19.13
2023-02-14T04:52:37.446Z,19.57
2023-02-14T04:55:11.023Z,19.30
2023-02-14T04:57:37.940Z,19.77
2023-02-14T05:00:06.582Z,17.83
2023-02-14T05:02:33.368Z,17.10
2023-02-14T05:05:03.461Z,20.10
2023-02-14T05:07:30.465Z,18.07
2023-02-14T05:09:57.212Z,19.57
2023-02-14T05:12:24.161Z,18.53
2023-02-14T05:14:51.027Z,16.40
2023-02-14T05:17:17.831Z,18.93
2023-02-14T05:19:44.893Z,17.90
2023-02-14T05:22:11.596Z,17.23
2023-02-14T05:24:38.875Z,16.97
2023-02-14T05:27:05.627Z,19.07
2023-02-14T05:29:32.422Z,17.43
2023-02-14T05:32:02.232Z,19.07
2023-02-14T05:34:32.134Z,19.53
2023-02-14T05:36:58.974Z,18.13
2023-02-14T05:39:25.710Z,18.67
2023-02-14T05:41:52.425Z,18.83
2023-02-14T05:44:19.135Z,15.90
2023-02-14T05:46:45.904Z,19.77
2023-02-14T05:49:15.314Z,16.53
2023-02-14T05:51:42.069Z,17.60
2023-02-14T05:54:10.844Z,16.77
2023-02-14T05:56:40.576Z,17.60
2023-02-14T05:59:09.538Z,17.70
2023-02-14T06:01:36.292Z,16.93
2023-02-14T06:04:03.209Z,16.53
2023-02-14T06:06:30.071Z,18.80
2023-02-14T06:08:56.780Z,21.23
2023-02-14T06:11:23.546Z,17.93
2023-02-14T06:13:50.300Z,20.30
2023-02-14T06:16:19.853Z,23.37
2023-02-14T06:18:46.574Z,16.90
2023-02-14T06:21:13.360Z,19.83
2023-02-14T06:23:40.375Z,18.87
2023-02-14T06:26:07.226Z,19.83
2023-02-14T06:28:34.067Z,16.73
2023-02-14T06:31:01.215Z,18.20
2023-02-14T06:33:28.198Z,17.30
2023-02-14T06:35:54.931Z,18.90
2023-02-14T06:38:21.705Z,23.15
2023-02-14T06:40:51.092Z,21.90
2023-02-14T06:43:17.877Z,19.20
2023-02-14T06:45:46.514Z,20.13
2023-02-14T06:48:13.236Z,19.27
2023-02-14T06:50:40.090Z,16.77
2023-02-14T06:53:16.976Z,14.63
2023-02-14T06:55:43.973Z,18.53
2023-02-14T06:58:11.224Z,21.67
2023-02-14T07:00:41.905Z,18.00
2023-02-14T07:03:11.975Z,19.60
2023-02-14T07:05:38.901Z,15.73
2023-02-14T07:08:07.194Z,24.48
2023-02-14T07:10:37.065Z,21.77
2023-02-14T07:13:07.084Z,19.27
2023-02-14T07:15:36.885Z,15.50
2023-02-14T07:18:06.161Z,18.83
2023-02-14T07:20:32.911Z,16.63
2023-02-14T07:22:59.648Z,22.00
2023-02-14T07:25:28.261Z,17.33
2023-02-14T07:27:55.455Z,18.20
2023-02-14T07:30:22.406Z,16.33
2023-02-14T07:32:49.198Z,16.97
2023-02-14T07:35:16.079Z,15.43
2023-02-14T07:37:42.867Z,15.60
2023-02-14T07:40:15.016Z,17.07
2023-02-14T07:42:43.449Z,15.30
2023-02-14T07:45:21.230Z,15.37
2023-02-14T07:47:51.209Z,14.60
2023-02-14T07:50:18.886Z,16.33
2023-02-14T07:52:46.426Z,18.23
2023-02-14T07:55:13.438Z,15.97
2023-02-14T07:57:40.309Z,17.27
2023-02-14T08:00:10.965Z,16.53
2023-02-14T08:02:37.806Z,17.43
2023-02-14T08:05:07.292Z,19.40
2023-02-14T08:07:34.162Z,16.43
2023-02-14T08:10:00.901Z,14.47
2023-02-14T08:12:48.367Z,18.63
2023-02-14T08:15:35.975Z,17.07
2023-02-14T08:18:02.813Z,16.97
2023-02-14T08:20:29.865Z,17.60
2023-02-14T08:22:56.695Z,17.17
2023-02-14T08:25:23.875Z,16.07
2023-02-14T08:27:50.674Z,17.43
2023-02-14T08:30:20.898Z,17.47
2023-02-14T08:32:47.835Z,17.30
2023-02-14T08:35:20.131Z,21.83
2023-02-14T08:37:49.445Z,19.27
2023-02-14T08:40:20.277Z,20.50
2023-02-14T08:42:49.602Z,21.40
2023-02-14T08:45:16.627Z,23.43
2023-02-14T08:47:46.541Z,20.63
2023-02-14T08:50:17.319Z,20.80
2023-02-14T08:52:45.144Z,20.97
2023-02-14T08:55:17.134Z,24.60
2023-02-14T08:57:47.080Z,22.63
2023-02-14T09:00:15.203Z,23.20
2023-02-14T09:02:42.313Z,27.33
2023-02-14T09:05:10.520Z,25.20
2023-02-14T09:07:37.537Z,28.43
2023-02-14T09:10:05.104Z,26.27
2023-02-14T09:12:34.261Z,25.50
2023-02-14T09:15:01.131Z,24.83
2023-02-14T09:17:30.305Z,23.30
2023-02-14T09:19:57.331Z,28.63
2023-02-14T09:22:24.322Z,25.97
2023-02-14T09:24:51.141Z,25.80
2023-02-14T09:27:17.990Z,28.47
2023-02-14T09:29:44.785Z,26.63
2023-02-14T09:32:11.643Z,28.33
2023-02-14T09:34:38.481Z,26.43
2023-02-14T09:37:26.834Z,26.27
2023-02-14T09:39:53.559Z,31.57
2023-02-14T09:42:47.239Z,25.10
2023-02-14T09:45:28.072Z,23.60
2023-02-14T09:48:39.940Z,24.90
2023-02-14T09:51:14.847Z,24.03
2023-02-14T09:54:04.007Z,22.35
2023-02-14T09:56:51.664Z,22.35
2023-02-14T10:00:13.536Z,22.83
2023-02-14T10:03:42.913Z,19.33
2023-02-14T10:07:09.895Z,23.85
2023-02-14T10:10:16.253Z,21.25
2023-02-14T10:16:22.046Z,22.43
2023-02-14T10:19:19.606Z,22.33
2023-02-14T10:21:57.963Z,22.58
2023-02-14T10:24:40.162Z,22.60
2023-02-14T10:27:32.362Z,22.23
2023-02-14T10:30:14.257Z,21.15
2023-02-14T10:33:06.352Z,23.58
2023-02-14T10:35:48.098Z,22.88
2023-02-14T10:38:50.299Z,18.30
2023-02-14T10:41:40.231Z,20.45
2023-02-14T10:44:40.552Z,19.85
2023-02-14T10:47:41.740Z,19.45
2023-02-14T10:50:27.287Z,21.13
2023-02-14T10:53:09.938Z,21.85
2023-02-14T10:56:07.661Z,21.08
2023-02-14T10:58:42.118Z,22.20
2023-02-14T11:01:17.644Z,22.25
2023-02-14T11:04:05.955Z,22.40
2023-02-14T11:06:33.601Z,24.23
2023-02-14T11:09:00.689Z,23.17
2023-02-14T11:11:36.009Z,21.52
2023-02-14T11:14:26.110Z,20.45
2023-02-14T11:17:02.348Z,21.23
2023-02-14T11:19:37.290Z,23.42
2023-02-14T11:22:04.838Z,25.67
2023-02-14T11:24:39.792Z,23.77
2023-02-14T11:27:12.540Z,26.70
2023-02-14T11:29:43.395Z,24.67
2023-02-14T11:32:30.848Z,26.17
2023-02-14T11:35:02.816Z,25.43
2023-02-14T11:37:50.028Z,25.80
2023-02-14T11:40:34.720Z,24.27
2023-02-14T11:43:14.821Z,24.00
2023-02-14T11:45:49.001Z,23.20
2023-02-14T11:48:36.542Z,24.50
2023-02-14T11:51:16.656Z,28.77
2023-02-14T11:53:55.944Z,25.23
2023-02-14T11:56:24.355Z,24.90
2023-02-14T11:59:04.308Z,24.20
2023-02-14T12:01:38.553Z,25.90
2023-02-14T12:04:15.362Z,25.77
2023-02-14T12:06:44.358Z,24.67
2023-02-14T12:09:27.972Z,25.02
2023-02-14T12:12:16.334Z,24.17
2023-02-14T12:14:43.539Z,24.10
2023-02-14T12:17:35.229Z,25.70
2023-02-14T12:20:19.335Z,23.73
2023-02-14T12:23:03.371Z,24.83
2023-02-14T12:26:09.252Z,22.97
2023-02-14T12:28:55.597Z,23.98
2023-02-14T12:31:22.361Z,28.60
2023-02-14T12:33:51.544Z,24.98
2023-02-14T12:36:47.642Z,24.10
2023-02-14T12:39:20.710Z,23.33
2023-02-14T12:42:19.279Z,19.95
2023-02-14T12:45:16.909Z,22.00
2023-02-14T12:47:55.961Z,20.83
2023-02-14T12:51:10.527Z,23.10
2023-02-14T12:54:05.221Z,20.33
2023-02-14T12:57:22.412Z,22.20
2023-02-14T13:00:43.539Z,23.05
2023-02-14T13:03:24.733Z,22.55
2023-02-14T13:06:32.232Z,21.65
2023-02-14T13:09:16.390Z,23.33
2023-02-14T13:11:56.486Z,23.33
2023-02-14T13:14:57.284Z,22.85
2023-02-14T13:17:52.762Z,22.13
2023-02-14T13:20:52.291Z,20.92
2023-02-14T13:23:38.368Z,20.58
2023-02-14T13:26:31.802Z,23.92
2023-02-14T13:29:28.727Z,23.75
2023-02-14T13:32:02.926Z,20.85
2023-02-14T13:34:43.414Z,22.60
2023-02-14T13:37:19.537Z,22.20
2023-02-14T13:39:58.198Z,20.60
2023-02-14T13:42:47.589Z,21.17
2023-02-14T13:45:34.852Z,22.33
2023-02-14T13:48:25.250Z,23.23
2023-02-14T13:50:57.762Z,25.85
2023-02-14T13:53:41.672Z,24.55
2023-02-14T13:56:17.382Z,20.35
2023-02-14T13:59:00.615Z,23.35
2023-02-14T14:01:39.132Z,19.95
2023-02-14T14:04:28.214Z,22.20
2023-02-14T14:07:15.801Z,25.17
2023-02-14T14:09:45.701Z,28.05
2023-02-14T14:12:27.809Z,24.08
2023-02-14T14:15:23.998Z,20.65
2023-02-14T14:18:12.912Z,25.38
2023-02-14T14:20:48.009Z,24.88
2023-02-14T14:23:35.401Z,18.33
2023-02-14T14:26:03.561Z,23.77
2023-02-14T14:28:33.137Z,22.15
2023-02-14T14:31:00.503Z,20.77
2023-02-14T14:33:34.827Z,22.60
2023-02-14T14:36:20.959Z,23.13
2023-02-14T14:38:51.149Z,20.95
2023-02-14T14:41:18.509Z,20.50
2023-02-14T14:43:50.753Z,22.27
2023-02-14T14:46:18.580Z,20.80
2023-02-14T14:48:49.974Z,23.05
2023-02-14T14:51:29.182Z,21.40
2023-02-14T14:54:04.667Z,21.00
2023-02-14T14:57:00.360Z,20.05
2023-02-14T14:59:40.506Z,22.25
2023-02-14T15:02:28.033Z,19.83
2023-02-14T15:04:55.026Z,19.40
2023-02-14T15:07:28.061Z,19.17
2023-02-14T15:09:54.863Z,21.27
2023-02-14T15:12:43.094Z,20.27
2023-02-14T15:15:17.664Z,19.42
2023-02-14T15:17:48.086Z,22.25
2023-02-14T15:20:19.974Z,18.75
2023-02-14T15:22:54.504Z,23.10
2023-02-14T15:25:32.040Z,23.05
2023-02-14T15:27:59.481Z,20.00
2023-02-14T15:30:44.472Z,22.52
2023-02-14T15:33:12.034Z,23.63
2023-02-14T15:35:42.601Z,19.98
2023-02-14T15:38:14.690Z,17.65
2023-02-14T15:40:43.973Z,18.95
2023-02-14T15:43:21.883Z,20.45
2023-02-14T15:45:56.605Z,16.75
2023-02-14T15:48:34.366Z,21.58
2023-02-14T15:51:04.956Z,20.40
2023-02-14T15:53:58.456Z,21.60
2023-02-14T15:56:34.606Z,21.60
2023-02-14T15:59:17.248Z,22.98
2023-02-14T16:01:57.207Z,21.02
2023-02-14T16:04:28.626Z,19.50
2023-02-14T16:07:22.464Z,17.40
2023-02-14T16:09:51.660Z,19.88
2023-02-14T16:12:36.825Z,19.10
2023-02-14T16:15:25.142Z,21.10
2023-02-14T16:17:52.242Z,18.95
2023-02-14T16:20:41.832Z,20.92
2023-02-14T16:23:28.947Z,20.38
2023-02-14T16:25:57.488Z,19.45
2023-02-14T16:28:30.252Z,17.95
2023-02-14T16:31:00.329Z,22.27
2023-02-14T16:33:35.248Z,24.50
2023-02-14T16:36:18.426Z,20.48
2023-02-14T16:38:46.351Z,19.90
2023-02-14T16:41:20.084Z,19.58
2023-02-14T16:43:48.457Z,17.63
2023-02-14T16:46:20.930Z,20.23
2023-02-14T16:48:52.179Z,24.60
2023-02-14T16:51:23.167Z,20.08
2023-02-14T16:53:50.627Z,17.83
2023-02-14T16:56:38.017Z,21.48
2023-02-14T16:59:05.161Z,21.30
2023-02-14T17:01:32.557Z,21.93
2023-02-14T17:04:02.817Z,19.63
2023-02-14T17:06:36.049Z,20.88
2023-02-14T17:09:08.359Z,19.73
2023-02-14T17:11:40.611Z,20.13
2023-02-14T17:14:08.558Z,21.00
2023-02-14T17:16:35.667Z,21.03
2023-02-14T17:19:08.835Z,19.67
2023-02-14T17:21:35.803Z,20.97
2023-02-14T17:24:03.570Z,23.87
2023-02-14T17:26:30.435Z,23.27
2023-02-14T17:28:57.137Z,24.53
2023-02-14T17:31:23.955Z,23.90
2023-02-14T17:33:50.896Z,22.47
2023-02-14T17:36:17.698Z,23.40
2023-02-14T17:38:44.849Z,21.73
2023-02-14T17:41:19.137Z,21.90
2023-02-14T17:43:53.066Z,24.37
2023-02-14T17:46:20.896Z,22.00
2023-02-14T17:48:50.978Z,24.10
2023-02-14T17:51:20.367Z,21.20
2023-02-14T17:53:48.789Z,26.10
2023-02-14T17:56:20.396Z,19.60
2023-02-14T17:58:50.539Z,23.23
2023-02-14T18:01:21.611Z,23.83
2023-02-14T18:03:54.908Z,22.17
2023-02-14T18:06:33.672Z,19.23
2023-02-14T18:09:02.776Z,21.37
2023-02-14T18:11:29.568Z,20.70
2023-02-14T18:14:04.392Z,19.07
2023-02-14T18:16:31.443Z,20.60
2023-02-14T18:19:02.783Z,21.57
2023-02-14T18:21:35.569Z,21.17
2023-02-14T18:24:04.084Z,23.43
2023-02-14T18:26:31.566Z,20.00
2023-02-14T18:29:07.960Z,24.30
2023-02-14T18:31:37.915Z,19.00
2023-02-14T18:34:05.373Z,21.70
2023-02-14T18:36:34.458Z,25.20
2023-02-14T18:39:01.217Z,25.20
2023-02-14T18:41:29.560Z,23.00
2023-02-14T18:43:56.619Z,22.13
2023-02-14T18:46:31.040Z,23.53
2023-02-14T18:48:58.151Z,22.30
2023-02-14T18:51:32.268Z,24.30
2023-02-14T18:54:01.496Z,20.87
2023-02-14T18:56:32.475Z,23.67
2023-02-14T18:59:07.016Z,19.43
2023-02-14T19:01:41.993Z,22.00
2023-02-14T19:04:13.630Z,23.20
2023-02-14T19:06:42.512Z,24.67
2023-02-14T19:09:13.178Z,22.97
2023-02-14T19:11:40.693Z,25.80
2023-02-14T19:14:15.737Z,23.17
2023-02-14T19:16:53.408Z,27.87
2023-02-14T19:19:27.067Z,23.40
2023-02-14T19:21:53.878Z,25.93
2023-02-14T19:24:21.779Z,26.50
2023-02-14T19:26:52.646Z,36.70
2023-02-14T19:29:21.623Z,32.97
2023-02-14T19:31:54.664Z,30.17
2023-02-14T19:34:30.891Z,32.47
2023-02-14T19:37:00.527Z,33.43
2023-02-14T19:39:29.881Z,34.83
2023-02-14T19:41:57.893Z,37.13
2023-02-14T19:44:25.976Z,37.43
2023-02-14T19:46:56.678Z,42.17
2023-02-14T19:49:23.761Z,41.23
2023-02-14T19:51:53.918Z,33.73
2023-02-14T19:54:25.603Z,32.10
2023-02-14T19:56:55.987Z,34.17
2023-02-14T19:59:23.917Z,33.73
2023-02-14T20:01:53.771Z,33.00
2023-02-14T20:04:27.682Z,29.17
2023-02-14T20:07:00.521Z,30.57
2023-02-14T20:09:27.289Z,29.47
2023-02-14T20:11:56.980Z,29.63
2023-02-14T20:14:31.465Z,34.80
2023-02-14T20:17:03.798Z,39.93
2023-02-14T20:19:35.813Z,31.23
2023-02-14T20:22:02.940Z,35.03
2023-02-14T20:24:32.223Z,28.53
2023-02-14T20:27:00.561Z,27.90
2023-02-14T20:29:30.664Z,31.17
2023-02-14T20:31:59.985Z,27.67
2023-02-14T20:34:30.551Z,34.77
2023-02-14T20:36:59.109Z,29.43
2023-02-14T20:39:32.846Z,31.13
2023-02-14T20:42:00.848Z,29.50
2023-02-14T20:44:28.331Z,30.67
2023-02-14T20:46:59.048Z,28.83
2023-02-14T20:49:35.683Z,28.40
2023-02-14T20:52:03.158Z,27.97
2023-02-14T20:54:30.759Z,28.40
2023-02-14T20:57:00.285Z,30.43
2023-02-14T20:59:33.230Z,29.13
2023-02-14T21:02:00.086Z,31.87
2023-02-14T21:04:28.348Z,31.60
2023-02-14T21:07:00.109Z,38.13
2023-02-14T21:09:28.240Z,45.17
2023-02-14T21:11:54.943Z,52.57
2023-02-14T21:14:21.695Z,57.10
2023-02-14T21:16:48.470Z,49.10
2023-02-14T21:19:15.639Z,44.30
2023-02-14T21:21:42.478Z,48.93
2023-02-14T21:24:16.735Z,45.20
2023-02-14T21:26:44.548Z,45.50
2023-02-14T21:29:11.402Z,52.53
2023-02-14T21:31:39.673Z,44.63
2023-02-14T21:34:06.545Z,36.03
2023-02-14T21:36:38.043Z,32.43
2023-02-14T21:39:06.796Z,28.40
2023-02-14T21:41:35.501Z,29.40
2023-02-14T21:44:04.571Z,24.83
2023-02-14T21:46:39.347Z,31.50
2023-02-14T21:49:25.778Z,29.53
2023-02-14T21:51:52.798Z,32.03
2023-02-14T21:54:19.732Z,40.13
2023-02-14T21:56:46.685Z,33.33
2023-02-14T21:59:16.774Z,34.43
2023-02-14T22:01:43.595Z,32.40
2023-02-14T22:04:13.564Z,27.27
2023-02-14T22:06:43.708Z,31.30
2023-02-14T22:09:14.000Z,29.90
2023-02-14T22:11:43.859Z,31.87
2023-02-14T22:14:11.274Z,33.37
2023-02-14T22:16:38.205Z,40.17
2023-02-14T22:19:06.982Z,38.57
2023-02-14T22:21:37.023Z,44.03
2023-02-14T22:24:04.408Z,39.67
2023-02-14T22:26:38.471Z,36.43
2023-02-14T22:29:09.225Z,31.60
2023-02-14T22:31:40.067Z,29.27
2023-02-14T22:34:13.491Z,28.73
2023-02-14T22:36:40.433Z,34.07
2023-02-14T22:39:07.858Z,36.50
2023-02-14T22:41:37.726Z,45.93
2023-02-14T22:44:05.436Z,44.37
2023-02-14T22:46:33.131Z,41.33
2023-02-14T22:48:59.919Z,34.63
2023-02-14T22:51:36.714Z,31.60
2023-02-14T22:54:13.671Z,27.77
2023-02-14T22:56:47.483Z,32.73
2023-02-14T22:59:31.288Z,29.93
2023-02-14T23:01:58.230Z,34.00
2023-02-14T23:04:26.138Z,28.97
2023-02-14T23:06:53.939Z,29.67
2023-02-14T23:09:21.732Z,37.80
2023-02-14T23:11:48.874Z,34.43
2023-02-14T23:14:36.294Z,36.20
2023-02-14T23:17:29.058Z,37.03
2023-02-14T23:20:14.530Z,33.00
2023-02-14T23:22:41.511Z,31.70
2023-02-14T23:25:12.627Z,28.30
2023-02-14T23:27:47.428Z,26.97
2023-02-14T23:30:18.160Z,25.63
2023-02-14T23:32:45.390Z,29.63
2023-02-14T23:35:12.354Z,30.93
2023-02-14T23:37:39.097Z,31.50
2023-02-14T23:40:07.498Z,35.13
2023-02-14T23:42:34.274Z,36.07
2023-02-14T23:45:21.080Z,35.50
2023-02-14T23:47:50.401Z,35.53
2023-02-14T23:50:17.394Z,37.33
2023-02-14T23:52:44.844Z,39.50
2023-02-14T23:55:12.244Z,34.00
2023-02-14T23:57:39.486Z,31.17
